Twigg, Illinois
Current Conditions -  °F | °C
As of 6:55 PM on Saturday 22 Nov 2014 (Local Time) from KHSB Reporting Station
Overcast Overcast  
Wind Chill: 58°   Ceiling: 11000
Heat Index: 58°   Visibility: 10mi
Dew Point: 40°   Wind: 9mph
Humidity: 51%   Direction: 180°S
Pressure: 30.03"   Gusts: NA
Location:  37.9948°N, 88.5401°W
Report Text: KHSB 230055Z AUTO 18008KT 10SM SCT080 OVC110 15/04 A3003 RMK AO2 T01450044
Loading
Personal Weather Stations






























Interactive Weather Map New forecast layout! Learn more

10-Day Weather Forecast

Advertisements
Track Severe Weather on mobile